Victoria, Texas
Current Conditions -  °F | °C
As of 12:51 AM on Thursday 23 Oct 2014 (Local Time) from KVCT Reporting Station
Haze Haze  
Wind Chill: 62°   Ceiling: Unl
Heat Index: 62°   Visibility: 6mi
Dew Point: 59°   Wind: 3mph
Humidity: 90%   Direction: 30°NNE
Pressure: 30.08"   Gusts: NA
Location:  28.81°N, 97°W
Report Text: KVCT 230551Z AUTO 03003KT 6SM BR CLR 17/15 A3008 RMK AO2 SLP183 T01670150 10244 20161 403110150 58001
Loading
Personal Weather Stations






























Interactive Weather Map
Tropical Storm Tracking
New forecast layout! Learn more

10-Day Weather Forecast

Advertisements
Track Severe Weather on mobile